sensor_id;sensor_type;location;lat;lon;timestamp;temperature;humidity
29855;DHT22;16733;48.738;9.106;2023-03-11T00:02:02;2.20;99.90
29855;DHT22;16733;48.738;9.106;2023-03-11T00:04:28;2.20;99.90
29855;DHT22;16733;48.738;9.106;2023-03-11T00:06:53;2.20;99.90
29855;DHT22;16733;48.738;9.106;2023-03-11T00:09:19;2.20;99.90
29855;DHT22;16733;48.738;9.106;2023-03-11T00:11:45;2.20;99.90
29855;DHT22;16733;48.738;9.106;2023-03-11T00:14:10;2.20;99.90
29855;DHT22;16733;48.738;9.106;2023-03-11T00:16:36;2.10;99.90
29855;DHT22;16733;48.738;9.106;2023-03-11T00:19:01;2.10;99.90
29855;DHT22;16733;48.738;9.106;2023-03-11T00:21:27;2.10;99.90
29855;DHT22;16733;48.738;9.106;2023-03-11T00:23:52;2.10;99.90
29855;DHT22;16733;48.738;9.106;2023-03-11T00:26:18;2.10;99.90
29855;DHT22;16733;48.738;9.106;2023-03-11T00:28:44;2.10;99.90
29855;DHT22;16733;48.738;9.106;2023-03-11T00:31:11;2.10;99.90
29855;DHT22;16733;48.738;9.106;2023-03-11T00:33:38;2.10;99.90
29855;DHT22;16733;48.738;9.106;2023-03-11T00:36:04;2.20;99.90
29855;DHT22;16733;48.738;9.106;2023-03-11T00:38:31;2.20;99.90
29855;DHT22;16733;48.738;9.106;2023-03-11T00:40:56;2.20;99.90
29855;DHT22;16733;48.738;9.106;2023-03-11T00:43:25;2.20;99.90
29855;DHT22;16733;48.738;9.106;2023-03-11T00:45:51;2.20;99.90
29855;DHT22;16733;48.738;9.106;2023-03-11T00:48:16;2.30;99.90
29855;DHT22;16733;48.738;9.106;2023-03-11T00:50:42;2.30;99.90
29855;DHT22;16733;48.738;9.106;2023-03-11T00:53:09;2.30;99.90
29855;DHT22;16733;48.738;9.106;2023-03-11T00:55:34;2.30;99.90
29855;DHT22;16733;48.738;9.106;2023-03-11T00:58:02;2.30;99.90
29855;DHT22;16733;48.738;9.106;2023-03-11T01:00:29;2.30;99.90
29855;DHT22;16733;48.738;9.106;2023-03-11T01:02:56;2.40;99.90
29855;DHT22;16733;48.738;9.106;2023-03-11T01:05:25;2.40;99.90
29855;DHT22;16733;48.738;9.106;2023-03-11T01:07:51;2.40;99.90
29855;DHT22;16733;48.738;9.106;2023-03-11T01:10:17;2.40;99.90
29855;DHT22;16733;48.738;9.106;2023-03-11T01:12:42;2.40;99.90
29855;DHT22;16733;48.738;9.106;2023-03-11T01:15:14;2.40;99.90
29855;DHT22;16733;48.738;9.106;2023-03-11T01:17:41;2.40;99.90
29855;DHT22;16733;48.738;9.106;2023-03-11T01:20:06;2.40;99.90
29855;DHT22;16733;48.738;9.106;2023-03-11T01:22:34;2.40;99.90
29855;DHT22;16733;48.738;9.106;2023-03-11T01:25:00;2.40;99.90
29855;DHT22;16733;48.738;9.106;2023-03-11T01:27:25;2.40;99.90
29855;DHT22;16733;48.738;9.106;2023-03-11T01:29:53;2.40;99.90
29855;DHT22;16733;48.738;9.106;2023-03-11T01:32:19;2.30;99.90
29855;DHT22;16733;48.738;9.106;2023-03-11T01:34:45;2.30;99.90
29855;DHT22;16733;48.738;9.106;2023-03-11T01:37:10;2.30;99.90
29855;DHT22;16733;48.738;9.106;2023-03-11T01:39:36;2.20;99.90
29855;DHT22;16733;48.738;9.106;2023-03-11T01:42:01;2.10;99.90
29855;DHT22;16733;48.738;9.106;2023-03-11T01:44:27;2.10;99.90
29855;DHT22;16733;48.738;9.106;2023-03-11T01:49:20;2.00;99.90
29855;DHT22;16733;48.738;9.106;2023-03-11T01:51:52;1.90;99.90
29855;DHT22;16733;48.738;9.106;2023-03-11T01:54:27;1.80;99.90
29855;DHT22;16733;48.738;9.106;2023-03-11T01:56:54;1.80;99.90
29855;DHT22;16733;48.738;9.106;2023-03-11T01:59:23;1.80;99.90
29855;DHT22;16733;48.738;9.106;2023-03-11T02:04:33;1.80;99.90
29855;DHT22;16733;48.738;9.106;2023-03-11T02:07:00;1.80;99.90
29855;DHT22;16733;48.738;9.106;2023-03-11T02:09:26;1.80;99.90
29855;DHT22;16733;48.738;9.106;2023-03-11T02:11:52;1.80;99.90
29855;DHT22;16733;48.738;9.106;2023-03-11T02:14:18;1.80;99.90
29855;DHT22;16733;48.738;9.106;2023-03-11T02:16:44;1.80;99.90
29855;DHT22;16733;48.738;9.106;2023-03-11T02:19:23;1.80;99.90
29855;DHT22;16733;48.738;9.106;2023-03-11T02:21:51;1.80;99.90
29855;DHT22;16733;48.738;9.106;2023-03-11T02:24:34;1.80;99.90
29855;DHT22;16733;48.738;9.106;2023-03-11T02:27:09;1.80;99.90
29855;DHT22;16733;48.738;9.106;2023-03-11T02:29:36;1.70;99.90
29855;DHT22;16733;48.738;9.106;2023-03-11T02:32:06;1.70;99.90
29855;DHT22;16733;48.738;9.106;2023-03-11T02:34:35;1.70;99.90
29855;DHT22;16733;48.738;9.106;2023-03-11T02:37:10;1.70;99.90
29855;DHT22;16733;48.738;9.106;2023-03-11T02:39:41;1.70;99.90
29855;DHT22;16733;48.738;9.106;2023-03-11T02:45:10;1.60;99.90
29855;DHT22;16733;48.738;9.106;2023-03-11T02:47:35;1.50;99.90
29855;DHT22;16733;48.738;9.106;2023-03-11T02:50:02;1.40;99.90
29855;DHT22;16733;48.738;9.106;2023-03-11T02:52:31;1.40;99.90
29855;DHT22;16733;48.738;9.106;2023-03-11T02:54:57;1.40;99.90
29855;DHT22;16733;48.738;9.106;2023-03-11T02:57:23;1.30;99.90
29855;DHT22;16733;48.738;9.106;2023-03-11T02:59:49;1.30;99.90
29855;DHT22;16733;48.738;9.106;2023-03-11T03:02:15;1.30;99.90
29855;DHT22;16733;48.738;9.106;2023-03-11T03:04:40;1.20;99.90
29855;DHT22;16733;48.738;9.106;2023-03-11T03:07:06;1.20;99.90
29855;DHT22;16733;48.738;9.106;2023-03-11T03:09:32;1.20;99.90
29855;DHT22;16733;48.738;9.106;2023-03-11T03:11:58;1.10;99.90
29855;DHT22;16733;48.738;9.106;2023-03-11T03:14:24;1.10;99.90
29855;DHT22;16733;48.738;9.106;2023-03-11T03:16:50;1.00;99.90
29855;DHT22;16733;48.738;9.106;2023-03-11T03:19:15;1.00;99.90
29855;DHT22;16733;48.738;9.106;2023-03-11T03:21:41;1.00;99.90
29855;DHT22;16733;48.738;9.106;2023-03-11T03:24:07;0.90;99.90
29855;DHT22;16733;48.738;9.106;2023-03-11T03:26:32;0.90;99.90
29855;DHT22;16733;48.738;9.106;2023-03-11T03:28:58;0.90;99.90
29855;DHT22;16733;48.738;9.106;2023-03-11T03:31:24;0.80;99.90
29855;DHT22;16733;48.738;9.106;2023-03-11T03:33:50;0.80;99.90
29855;DHT22;16733;48.738;9.106;2023-03-11T03:36:15;0.80;99.90
29855;DHT22;16733;48.738;9.106;2023-03-11T03:38:41;0.80;99.90
29855;DHT22;16733;48.738;9.106;2023-03-11T03:41:08;0.70;99.90
29855;DHT22;16733;48.738;9.106;2023-03-11T03:43:33;0.80;99.90
29855;DHT22;16733;48.738;9.106;2023-03-11T03:46:01;0.70;99.90
29855;DHT22;16733;48.738;9.106;2023-03-11T03:48:28;0.70;99.90
29855;DHT22;16733;48.738;9.106;2023-03-11T03:50:53;0.70;99.90
29855;DHT22;16733;48.738;9.106;2023-03-11T03:53:19;0.60;99.90
29855;DHT22;16733;48.738;9.106;2023-03-11T03:55:45;0.60;99.90
29855;DHT22;16733;48.738;9.106;2023-03-11T03:58:10;0.60;99.90
29855;DHT22;16733;48.738;9.106;2023-03-11T04:00:36;0.60;99.90
29855;DHT22;16733;48.738;9.106;2023-03-11T04:03:02;0.50;99.90
29855;DHT22;16733;48.738;9.106;2023-03-11T04:05:28;0.50;99.90
29855;DHT22;16733;48.738;9.106;2023-03-11T04:07:54;0.50;99.90
29855;DHT22;16733;48.738;9.106;2023-03-11T04:10:22;0.50;99.90
29855;DHT22;16733;48.738;9.106;2023-03-11T04:12:48;0.50;99.90
29855;DHT22;16733;48.738;9.106;2023-03-11T04:15:14;0.50;99.90
29855;DHT22;16733;48.738;9.106;2023-03-11T04:17:40;0.50;99.90
29855;DHT22;16733;48.738;9.106;2023-03-11T04:20:06;0.40;99.90
29855;DHT22;16733;48.738;9.106;2023-03-11T04:22:32;0.40;99.90
29855;DHT22;16733;48.738;9.106;2023-03-11T04:24:58;0.40;99.90
29855;DHT22;16733;48.738;9.106;2023-03-11T04:27:24;0.40;99.90
29855;DHT22;16733;48.738;9.106;2023-03-11T04:29:49;0.40;99.90
29855;DHT22;16733;48.738;9.106;2023-03-11T04:32:15;0.40;99.90
29855;DHT22;16733;48.738;9.106;2023-03-11T04:34:40;0.40;99.90
29855;DHT22;16733;48.738;9.106;2023-03-11T04:37:06;0.40;99.90
29855;DHT22;16733;48.738;9.106;2023-03-11T04:39:32;0.30;99.90
29855;DHT22;16733;48.738;9.106;2023-03-11T04:41:57;0.30;99.90
29855;DHT22;16733;48.738;9.106;2023-03-11T04:44:23;0.30;99.90
29855;DHT22;16733;48.738;9.106;2023-03-11T04:46:48;0.30;99.90
29855;DHT22;16733;48.738;9.106;2023-03-11T04:49:14;0.30;99.90
29855;DHT22;16733;48.738;9.106;2023-03-11T04:51:40;0.30;99.90
29855;DHT22;16733;48.738;9.106;2023-03-11T04:54:06;0.30;99.90
29855;DHT22;16733;48.738;9.106;2023-03-11T04:56:31;0.20;99.90
29855;DHT22;16733;48.738;9.106;2023-03-11T04:58:57;0.20;99.90
29855;DHT22;16733;48.738;9.106;2023-03-11T05:01:23;0.20;99.90
29855;DHT22;16733;48.738;9.106;2023-03-11T05:03:48;0.20;99.90
29855;DHT22;16733;48.738;9.106;2023-03-11T05:06:14;0.20;99.90
29855;DHT22;16733;48.738;9.106;2023-03-11T05:08:40;0.20;99.90
29855;DHT22;16733;48.738;9.106;2023-03-11T05:11:05;0.20;99.90
29855;DHT22;16733;48.738;9.106;2023-03-11T05:13:32;0.20;99.90
29855;DHT22;16733;48.738;9.106;2023-03-11T05:15:57;0.20;99.90
29855;DHT22;16733;48.738;9.106;2023-03-11T05:18:23;0.10;99.90
29855;DHT22;16733;48.738;9.106;2023-03-11T05:20:48;0.10;99.90
29855;DHT22;16733;48.738;9.106;2023-03-11T05:23:17;0.10;99.90
29855;DHT22;16733;48.738;9.106;2023-03-11T05:25:42;0.10;99.90
29855;DHT22;16733;48.738;9.106;2023-03-11T05:28:08;0.10;99.90
29855;DHT22;16733;48.738;9.106;2023-03-11T05:30:33;0.10;99.90
29855;DHT22;16733;48.738;9.106;2023-03-11T05:32:59;0.10;99.90
29855;DHT22;16733;48.738;9.106;2023-03-11T05:35:25;0.10;99.90
29855;DHT22;16733;48.738;9.106;2023-03-11T05:37:50;0.10;99.90
29855;DHT22;16733;48.738;9.106;2023-03-11T05:40:18;0.10;99.90
29855;DHT22;16733;48.738;9.106;2023-03-11T05:42:43;0.10;99.90
29855;DHT22;16733;48.738;9.106;2023-03-11T05:45:09;0.10;99.90
29855;DHT22;16733;48.738;9.106;2023-03-11T05:47:35;0.10;99.90
29855;DHT22;16733;48.738;9.106;2023-03-11T05:50:01;0.20;99.90
29855;DHT22;16733;48.738;9.106;2023-03-11T05:52:26;0.10;99.90
29855;DHT22;16733;48.738;9.106;2023-03-11T05:54:52;0.20;99.90
29855;DHT22;16733;48.738;9.106;2023-03-11T05:57:18;0.20;99.90
29855;DHT22;16733;48.738;9.106;2023-03-11T05:59:44;0.10;99.90
29855;DHT22;16733;48.738;9.106;2023-03-11T06:02:10;0.10;99.90
29855;DHT22;16733;48.738;9.106;2023-03-11T06:04:36;0.10;99.90
29855;DHT22;16733;48.738;9.106;2023-03-11T06:07:02;0.20;99.90
29855;DHT22;16733;48.738;9.106;2023-03-11T06:09:28;0.20;99.90
29855;DHT22;16733;48.738;9.106;2023-03-11T06:11:53;0.20;99.90
29855;DHT22;16733;48.738;9.106;2023-03-11T06:14:19;0.10;99.90
29855;DHT22;16733;48.738;9.106;2023-03-11T06:16:45;0.20;99.90
29855;DHT22;16733;48.738;9.106;2023-03-11T06:19:10;0.10;99.90
29855;DHT22;16733;48.738;9.106;2023-03-11T06:21:36;0.10;99.90
29855;DHT22;16733;48.738;9.106;2023-03-11T06:24:02;0.10;99.90
29855;DHT22;16733;48.738;9.106;2023-03-11T06:26:27;0.10;99.90
29855;DHT22;16733;48.738;9.106;2023-03-11T06:28:53;0.10;99.90
29855;DHT22;16733;48.738;9.106;2023-03-11T06:31:21;0.20;99.90
29855;DHT22;16733;48.738;9.106;2023-03-11T06:33:48;0.10;99.90
29855;DHT22;16733;48.738;9.106;2023-03-11T06:36:16;0.10;99.90
29855;DHT22;16733;48.738;9.106;2023-03-11T06:38:41;0.20;99.90
29855;DHT22;16733;48.738;9.106;2023-03-11T06:41:08;0.20;99.90
29855;DHT22;16733;48.738;9.106;2023-03-11T06:43:34;0.20;99.90
29855;DHT22;16733;48.738;9.106;2023-03-11T06:46:00;0.20;99.90
29855;DHT22;16733;48.738;9.106;2023-03-11T06:48:27;0.30;99.90
29855;DHT22;16733;48.738;9.106;2023-03-11T06:50:54;0.30;99.90
29855;DHT22;16733;48.738;9.106;2023-03-11T06:53:19;0.30;99.90
29855;DHT22;16733;48.738;9.106;2023-03-11T06:55:45;0.40;99.90
29855;DHT22;16733;48.738;9.106;2023-03-11T06:58:11;0.40;99.90
29855;DHT22;16733;48.738;9.106;2023-03-11T07:00:36;0.40;99.90
29855;DHT22;16733;48.738;9.106;2023-03-11T07:03:02;0.40;99.90
29855;DHT22;16733;48.738;9.106;2023-03-11T07:05:27;0.50;99.90
29855;DHT22;16733;48.738;9.106;2023-03-11T07:07:53;0.50;99.90
29855;DHT22;16733;48.738;9.106;2023-03-11T07:10:20;0.50;99.90
29855;DHT22;16733;48.738;9.106;2023-03-11T07:12:46;0.60;99.90
29855;DHT22;16733;48.738;9.106;2023-03-11T07:15:11;0.60;99.90
29855;DHT22;16733;48.738;9.106;2023-03-11T07:17:37;0.70;99.90
29855;DHT22;16733;48.738;9.106;2023-03-11T07:20:03;0.70;99.90
29855;DHT22;16733;48.738;9.106;2023-03-11T07:22:29;0.80;99.90
29855;DHT22;16733;48.738;9.106;2023-03-11T07:24:55;0.80;99.90
29855;DHT22;16733;48.738;9.106;2023-03-11T07:27:20;0.90;99.90
29855;DHT22;16733;48.738;9.106;2023-03-11T07:29:47;1.00;99.90
29855;DHT22;16733;48.738;9.106;2023-03-11T07:32:12;1.00;99.90
29855;DHT22;16733;48.738;9.106;2023-03-11T07:34:38;1.00;99.90
29855;DHT22;16733;48.738;9.106;2023-03-11T07:37:03;1.00;99.90
29855;DHT22;16733;48.738;9.106;2023-03-11T07:39:29;1.10;99.90
29855;DHT22;16733;48.738;9.106;2023-03-11T07:41:55;1.10;99.90
29855;DHT22;16733;48.738;9.106;2023-03-11T07:44:20;1.20;99.90
29855;DHT22;16733;48.738;9.106;2023-03-11T07:46:46;1.20;99.90
29855;DHT22;16733;48.738;9.106;2023-03-11T07:49:12;1.30;99.90
29855;DHT22;16733;48.738;9.106;2023-03-11T07:51:38;1.30;99.90
29855;DHT22;16733;48.738;9.106;2023-03-11T07:54:09;1.40;99.90
29855;DHT22;16733;48.738;9.106;2023-03-11T07:56:35;1.40;99.90
29855;DHT22;16733;48.738;9.106;2023-03-11T07:59:02;1.40;99.90
29855;DHT22;16733;48.738;9.106;2023-03-11T08:01:31;1.50;99.90
29855;DHT22;16733;48.738;9.106;2023-03-11T08:04:07;1.50;99.90
29855;DHT22;16733;48.738;9.106;2023-03-11T08:06:35;1.60;99.90
29855;DHT22;16733;48.738;9.106;2023-03-11T08:09:03;1.60;99.90
29855;DHT22;16733;48.738;9.106;2023-03-11T08:11:30;1.60;99.90
29855;DHT22;16733;48.738;9.106;2023-03-11T08:13:56;1.70;99.90
29855;DHT22;16733;48.738;9.106;2023-03-11T08:16:22;1.80;99.90
29855;DHT22;16733;48.738;9.106;2023-03-11T08:18:49;1.80;99.90
29855;DHT22;16733;48.738;9.106;2023-03-11T08:21:19;1.80;99.90
29855;DHT22;16733;48.738;9.106;2023-03-11T08:23:44;1.90;99.90
29855;DHT22;16733;48.738;9.106;2023-03-11T08:26:12;1.80;99.90
29855;DHT22;16733;48.738;9.106;2023-03-11T08:28:38;1.90;99.90
29855;DHT22;16733;48.738;9.106;2023-03-11T08:31:22;1.90;99.90
29855;DHT22;16733;48.738;9.106;2023-03-11T08:33:55;2.00;99.90
29855;DHT22;16733;48.738;9.106;2023-03-11T08:36:21;2.00;99.90
29855;DHT22;16733;48.738;9.106;2023-03-11T08:38:47;2.10;99.90
29855;DHT22;16733;48.738;9.106;2023-03-11T08:41:13;2.10;99.90
29855;DHT22;16733;48.738;9.106;2023-03-11T08:43:39;2.20;99.90
29855;DHT22;16733;48.738;9.106;2023-03-11T08:46:05;2.30;99.90
29855;DHT22;16733;48.738;9.106;2023-03-11T08:48:32;2.30;99.90
29855;DHT22;16733;48.738;9.106;2023-03-11T08:50:58;2.30;99.90
29855;DHT22;16733;48.738;9.106;2023-03-11T08:53:24;2.40;99.90
29855;DHT22;16733;48.738;9.106;2023-03-11T08:55:51;2.40;99.90
29855;DHT22;16733;48.738;9.106;2023-03-11T08:58:17;2.50;99.90
29855;DHT22;16733;48.738;9.106;2023-03-11T09:00:44;2.50;99.90
29855;DHT22;16733;48.738;9.106;2023-03-11T09:03:09;2.50;99.90
29855;DHT22;16733;48.738;9.106;2023-03-11T09:05:35;2.60;99.90
29855;DHT22;16733;48.738;9.106;2023-03-11T09:08:02;2.60;99.90
29855;DHT22;16733;48.738;9.106;2023-03-11T09:10:28;2.60;99.90
29855;DHT22;16733;48.738;9.106;2023-03-11T09:12:53;2.70;99.90
29855;DHT22;16733;48.738;9.106;2023-03-11T09:15:19;2.80;99.90
29855;DHT22;16733;48.738;9.106;2023-03-11T09:17:45;2.90;99.90
29855;DHT22;16733;48.738;9.106;2023-03-11T09:20:12;2.90;99.90
29855;DHT22;16733;48.738;9.106;2023-03-11T09:22:38;2.90;99.90
29855;DHT22;16733;48.738;9.106;2023-03-11T09:25:03;2.90;99.90
29855;DHT22;16733;48.738;9.106;2023-03-11T09:27:29;2.80;99.90
29855;DHT22;16733;48.738;9.106;2023-03-11T09:29:55;2.80;99.90
29855;DHT22;16733;48.738;9.106;2023-03-11T09:32:20;2.80;99.90
29855;DHT22;16733;48.738;9.106;2023-03-11T09:34:46;2.70;99.90
29855;DHT22;16733;48.738;9.106;2023-03-11T09:37:11;2.70;99.90
29855;DHT22;16733;48.738;9.106;2023-03-11T09:39:37;2.70;99.90
29855;DHT22;16733;48.738;9.106;2023-03-11T09:42:18;2.80;99.90
29855;DHT22;16733;48.738;9.106;2023-03-11T09:47:36;2.90;99.90
29855;DHT22;16733;48.738;9.106;2023-03-11T09:52:44;3.10;99.90
29855;DHT22;16733;48.738;9.106;2023-03-11T09:55:43;3.20;99.90
29855;DHT22;16733;48.738;9.106;2023-03-11T10:00:56;3.50;99.90
29855;DHT22;16733;48.738;9.106;2023-03-11T10:03:34;3.70;99.90
29855;DHT22;16733;48.738;9.106;2023-03-11T10:06:13;3.80;99.90
29855;DHT22;16733;48.738;9.106;2023-03-11T10:08:51;4.00;99.90
29855;DHT22;16733;48.738;9.106;2023-03-11T10:14:00;4.30;99.90
29855;DHT22;16733;48.738;9.106;2023-03-11T10:16:45;4.30;99.90
29855;DHT22;16733;48.738;9.106;2023-03-11T10:19:32;4.30;99.90
29855;DHT22;16733;48.738;9.106;2023-03-11T10:25:17;4.10;99.90
29855;DHT22;16733;48.738;9.106;2023-03-11T10:27:53;4.10;99.90
29855;DHT22;16733;48.738;9.106;2023-03-11T10:33:30;4.00;99.90
29855;DHT22;16733;48.738;9.106;2023-03-11T10:36:02;4.00;99.90
29855;DHT22;16733;48.738;9.106;2023-03-11T10:38:32;4.20;99.90
29855;DHT22;16733;48.738;9.106;2023-03-11T10:41:04;4.40;99.90
29855;DHT22;16733;48.738;9.106;2023-03-11T10:43:50;4.60;99.90
29855;DHT22;16733;48.738;9.106;2023-03-11T10:46:24;4.80;99.90
29855;DHT22;16733;48.738;9.106;2023-03-11T10:48:50;5.10;99.90
29855;DHT22;16733;48.738;9.106;2023-03-11T10:51:18;5.30;99.90
29855;DHT22;16733;48.738;9.106;2023-03-11T10:53:55;5.50;99.90
29855;DHT22;16733;48.738;9.106;2023-03-11T10:58:58;5.60;99.90
29855;DHT22;16733;48.738;9.106;2023-03-11T11:01:24;5.30;99.90
29855;DHT22;16733;48.738;9.106;2023-03-11T11:03:52;5.10;99.90
29855;DHT22;16733;48.738;9.106;2023-03-11T11:09:18;4.70;99.90
29855;DHT22;16733;48.738;9.106;2023-03-11T11:12:00;4.70;99.90
29855;DHT22;16733;48.738;9.106;2023-03-11T11:14:47;4.90;99.90
29855;DHT22;16733;48.738;9.106;2023-03-11T11:17:30;5.10;99.90
29855;DHT22;16733;48.738;9.106;2023-03-11T11:19:57;5.20;99.90
29855;DHT22;16733;48.738;9.106;2023-03-11T11:22:24;5.10;99.90
29855;DHT22;16733;48.738;9.106;2023-03-11T11:24:52;5.00;99.90
29855;DHT22;16733;48.738;9.106;2023-03-11T11:27:22;4.90;99.90
29855;DHT22;16733;48.738;9.106;2023-03-11T11:32:36;5.10;99.90
29855;DHT22;16733;48.738;9.106;2023-03-11T11:37:43;5.30;99.90
29855;DHT22;16733;48.738;9.106;2023-03-11T11:42:45;5.50;99.90
29855;DHT22;16733;48.738;9.106;2023-03-11T11:48:21;5.90;99.90
29855;DHT22;16733;48.738;9.106;2023-03-11T11:50:59;6.10;99.90
29855;DHT22;16733;48.738;9.106;2023-03-11T11:53:42;6.30;99.90
29855;DHT22;16733;48.738;9.106;2023-03-11T11:56:08;6.40;99.90
29855;DHT22;16733;48.738;9.106;2023-03-11T11:58:34;6.60;99.90
29855;DHT22;16733;48.738;9.106;2023-03-11T12:01:20;6.80;99.90
29855;DHT22;16733;48.738;9.106;2023-03-11T12:07:10;6.70;99.90
29855;DHT22;16733;48.738;9.106;2023-03-11T12:12:46;6.40;99.90
29855;DHT22;16733;48.738;9.106;2023-03-11T12:15:25;6.00;99.90
29855;DHT22;16733;48.738;9.106;2023-03-11T12:17:55;5.90;99.90
29855;DHT22;16733;48.738;9.106;2023-03-11T12:20:38;5.70;99.90
29855;DHT22;16733;48.738;9.106;2023-03-11T12:23:17;5.70;99.90
29855;DHT22;16733;48.738;9.106;2023-03-11T12:25:51;5.90;99.90
29855;DHT22;16733;48.738;9.106;2023-03-11T12:30:56;6.30;99.90
29855;DHT22;16733;48.738;9.106;2023-03-11T12:33:37;6.50;99.90
29855;DHT22;16733;48.738;9.106;2023-03-11T12:36:05;6.60;99.90
29855;DHT22;16733;48.738;9.106;2023-03-11T12:38:32;6.70;99.90
29855;DHT22;16733;48.738;9.106;2023-03-11T12:41:04;6.80;99.90
29855;DHT22;16733;48.738;9.106;2023-03-11T12:45:59;7.10;99.90
29855;DHT22;16733;48.738;9.106;2023-03-11T12:50:58;7.40;99.90
29855;DHT22;16733;48.738;9.106;2023-03-11T12:53:46;7.50;99.90
29855;DHT22;16733;48.738;9.106;2023-03-11T13:01:57;7.70;99.90
29855;DHT22;16733;48.738;9.106;2023-03-11T13:12:50;7.90;99.90
29855;DHT22;16733;48.738;9.106;2023-03-11T13:28:13;8.50;99.90
29855;DHT22;16733;48.738;9.106;2023-03-11T13:30:55;8.60;99.90
29855;DHT22;16733;48.738;9.106;2023-03-11T13:41:44;8.10;99.90
29855;DHT22;16733;48.738;9.106;2023-03-11T13:46:51;7.30;99.90
29855;DHT22;16733;48.738;9.106;2023-03-11T13:49:41;7.50;99.90
29855;DHT22;16733;48.738;9.106;2023-03-11T13:52:35;7.90;99.90
29855;DHT22;16733;48.738;9.106;2023-03-11T13:55:13;7.90;99.90
29855;DHT22;16733;48.738;9.106;2023-03-11T13:57:52;8.00;99.90
29855;DHT22;16733;48.738;9.106;2023-03-11T14:00:21;8.30;99.90
29855;DHT22;16733;48.738;9.106;2023-03-11T14:02:53;8.20;99.90
29855;DHT22;16733;48.738;9.106;2023-03-11T14:05:37;8.10;99.90
29855;DHT22;16733;48.738;9.106;2023-03-11T14:08:12;7.80;99.90
29855;DHT22;16733;48.738;9.106;2023-03-11T14:10:56;7.60;99.90
29855;DHT22;16733;48.738;9.106;2023-03-11T14:13:24;7.40;99.90
29855;DHT22;16733;48.738;9.106;2023-03-11T14:18:44;7.40;99.90
29855;DHT22;16733;48.738;9.106;2023-03-11T14:21:19;7.50;99.90
29855;DHT22;16733;48.738;9.106;2023-03-11T14:23:47;7.70;99.90
29855;DHT22;16733;48.738;9.106;2023-03-11T14:26:25;7.90;99.90
29855;DHT22;16733;48.738;9.106;2023-03-11T14:28:54;7.90;99.90
29855;DHT22;16733;48.738;9.106;2023-03-11T14:45:02;7.40;99.90
29855;DHT22;16733;48.738;9.106;2023-03-11T14:48:08;7.10;99.90
29855;DHT22;16733;48.738;9.106;2023-03-11T14:50:34;6.90;99.90
29855;DHT22;16733;48.738;9.106;2023-03-11T14:53:18;6.80;99.90
29855;DHT22;16733;48.738;9.106;2023-03-11T14:55:50;6.80;99.90
29855;DHT22;16733;48.738;9.106;2023-03-11T14:58:36;6.60;99.90
29855;DHT22;16733;48.738;9.106;2023-03-11T15:03:33;6.30;99.90
29855;DHT22;16733;48.738;9.106;2023-03-11T15:06:11;6.30;99.90
29855;DHT22;16733;48.738;9.106;2023-03-11T15:08:45;6.40;99.90
29855;DHT22;16733;48.738;9.106;2023-03-11T15:13:39;6.60;99.90
29855;DHT22;16733;48.738;9.106;2023-03-11T15:16:18;6.50;99.90
29855;DHT22;16733;48.738;9.106;2023-03-11T15:18:45;6.40;99.90
29855;DHT22;16733;48.738;9.106;2023-03-11T15:21:18;6.30;99.90
29855;DHT22;16733;48.738;9.106;2023-03-11T15:23:46;6.30;99.90
29855;DHT22;16733;48.738;9.106;2023-03-11T15:26:19;6.20;99.90
29855;DHT22;16733;48.738;9.106;2023-03-11T15:28:44;6.20;99.90
29855;DHT22;16733;48.738;9.106;2023-03-11T15:31:36;6.10;99.90
29855;DHT22;16733;48.738;9.106;2023-03-11T15:41:46;6.00;99.90
29855;DHT22;16733;48.738;9.106;2023-03-11T15:44:32;6.00;99.90
29855;DHT22;16733;48.738;9.106;2023-03-11T15:46:58;6.10;99.90
29855;DHT22;16733;48.738;9.106;2023-03-11T15:49:25;6.20;99.90
29855;DHT22;16733;48.738;9.106;2023-03-11T15:51:51;6.10;99.90
29855;DHT22;16733;48.738;9.106;2023-03-11T15:54:17;6.10;99.90
29855;DHT22;16733;48.738;9.106;2023-03-11T15:56:43;6.00;99.90
29855;DHT22;16733;48.738;9.106;2023-03-11T15:59:13;5.90;99.90
29855;DHT22;16733;48.738;9.106;2023-03-11T16:01:39;5.90;99.90
29855;DHT22;16733;48.738;9.106;2023-03-11T16:04:12;5.90;99.90
29855;DHT22;16733;48.738;9.106;2023-03-11T16:06:38;5.90;99.90
29855;DHT22;16733;48.738;9.106;2023-03-11T16:09:04;5.80;99.90
29855;DHT22;16733;48.738;9.106;2023-03-11T16:11:30;5.80;99.90
29855;DHT22;16733;48.738;9.106;2023-03-11T16:13:57;5.70;99.90
29855;DHT22;16733;48.738;9.106;2023-03-11T16:16:23;5.60;99.90
29855;DHT22;16733;48.738;9.106;2023-03-11T16:18:48;5.50;99.90
29855;DHT22;16733;48.738;9.106;2023-03-11T16:21:19;5.50;99.90
29855;DHT22;16733;48.738;9.106;2023-03-11T16:23:46;5.50;99.90
29855;DHT22;16733;48.738;9.106;2023-03-11T16:26:14;5.40;99.90
29855;DHT22;16733;48.738;9.106;2023-03-11T16:28:40;5.30;99.90
29855;DHT22;16733;48.738;9.106;2023-03-11T16:31:06;5.30;99.90
29855;DHT22;16733;48.738;9.106;2023-03-11T16:33:35;5.20;99.90
29855;DHT22;16733;48.738;9.106;2023-03-11T16:36:01;5.10;99.90
29855;DHT22;16733;48.738;9.106;2023-03-11T16:38:29;5.20;99.90
29855;DHT22;16733;48.738;9.106;2023-03-11T16:41:00;5.10;99.90
29855;DHT22;16733;48.738;9.106;2023-03-11T16:43:27;5.10;99.90
29855;DHT22;16733;48.738;9.106;2023-03-11T16:45:53;5.10;99.90
29855;DHT22;16733;48.738;9.106;2023-03-11T16:48:20;5.00;99.90
29855;DHT22;16733;48.738;9.106;2023-03-11T16:50:46;5.00;99.90
29855;DHT22;16733;48.738;9.106;2023-03-11T16:53:12;5.00;99.90
29855;DHT22;16733;48.738;9.106;2023-03-11T16:55:41;5.10;99.90
29855;DHT22;16733;48.738;9.106;2023-03-11T16:58:07;5.00;99.90
29855;DHT22;16733;48.738;9.106;2023-03-11T17:00:33;5.00;99.90
29855;DHT22;16733;48.738;9.106;2023-03-11T17:02:58;5.00;99.90
29855;DHT22;16733;48.738;9.106;2023-03-11T17:05:24;4.90;99.90
29855;DHT22;16733;48.738;9.106;2023-03-11T17:07:54;4.80;99.90
29855;DHT22;16733;48.738;9.106;2023-03-11T17:10:24;4.70;99.90
29855;DHT22;16733;48.738;9.106;2023-03-11T17:12:50;4.60;99.90
29855;DHT22;16733;48.738;9.106;2023-03-11T17:15:15;4.60;99.90
29855;DHT22;16733;48.738;9.106;2023-03-11T17:17:41;4.60;99.90
29855;DHT22;16733;48.738;9.106;2023-03-11T17:20:07;4.50;99.90
29855;DHT22;16733;48.738;9.106;2023-03-11T17:22:33;4.50;99.90
29855;DHT22;16733;48.738;9.106;2023-03-11T17:24:59;4.50;99.90
29855;DHT22;16733;48.738;9.106;2023-03-11T17:27:24;4.50;99.90
29855;DHT22;16733;48.738;9.106;2023-03-11T17:29:56;4.50;99.90
29855;DHT22;16733;48.738;9.106;2023-03-11T17:32:22;4.40;99.90
29855;DHT22;16733;48.738;9.106;2023-03-11T17:34:48;4.40;99.90
29855;DHT22;16733;48.738;9.106;2023-03-11T17:37:13;4.40;99.90
29855;DHT22;16733;48.738;9.106;2023-03-11T17:39:39;4.30;99.90
29855;DHT22;16733;48.738;9.106;2023-03-11T17:42:05;4.30;99.90
29855;DHT22;16733;48.738;9.106;2023-03-11T17:44:30;4.20;99.90
29855;DHT22;16733;48.738;9.106;2023-03-11T17:46:56;4.20;99.90
29855;DHT22;16733;48.738;9.106;2023-03-11T17:49:22;4.10;99.90
29855;DHT22;16733;48.738;9.106;2023-03-11T17:51:47;4.10;99.90
29855;DHT22;16733;48.738;9.106;2023-03-11T17:54:13;4.00;99.90
29855;DHT22;16733;48.738;9.106;2023-03-11T17:56:39;4.00;99.90